createdAt,value
2019-03-03T00:00:40.475Z,57.88
2019-03-03T00:04:44.088Z,70.75
2019-03-03T00:08:47.677Z,62.90
2019-03-03T00:12:51.285Z,62.62
2019-03-03T00:16:54.867Z,63.83
2019-03-03T00:20:58.489Z,51.83
2019-03-03T00:25:02.112Z,71.77
2019-03-03T00:29:05.708Z,49.48
2019-03-03T00:33:09.297Z,62.23
2019-03-03T00:37:23.497Z,52.67
2019-03-03T00:41:43.809Z,68.25
2019-03-03T00:45:49.051Z,63.25
2019-03-03T00:49:56.763Z,66.60
2019-03-03T00:54:18.404Z,61.58
2019-03-03T00:58:29.383Z,74.70
2019-03-03T01:02:37.623Z,60.33
2019-03-03T01:06:59.464Z,57.17
2019-03-03T01:11:07.678Z,60.73
2019-03-03T01:15:25.093Z,60.03
2019-03-03T01:19:30.324Z,60.55
2019-03-03T01:23:35.556Z,60.40
2019-03-03T01:27:39.160Z,53.63
2019-03-03T01:31:42.763Z,54.30
2019-03-03T01:35:46.527Z,60.28
2019-03-03T01:39:50.104Z,48.40
2019-03-03T01:43:53.683Z,43.80
2019-03-03T01:47:57.286Z,48.08
2019-03-03T01:52:00.890Z,44.90
2019-03-03T01:56:05.121Z,48.30
2019-03-03T02:00:28.552Z,44.75
2019-03-03T02:04:32.140Z,38.73
2019-03-03T02:08:35.752Z,37.77
2019-03-03T02:12:39.455Z,43.50
2019-03-03T02:16:43.054Z,46.90
2019-03-03T02:20:46.632Z,49.73
2019-03-03T02:24:50.223Z,35.08
2019-03-03T02:28:53.837Z,46.00
2019-03-03T02:32:57.445Z,39.27
2019-03-03T02:37:01.284Z,33.57
2019-03-03T02:41:05.206Z,31.85
2019-03-03T02:45:11.631Z,30.20
2019-03-03T02:49:15.237Z,27.62
2019-03-03T02:53:18.831Z,16.87
2019-03-03T02:57:22.445Z,25.88
2019-03-03T03:01:27.669Z,15.88
2019-03-03T03:05:32.988Z,15.90
2019-03-03T03:09:38.232Z,24.70
2019-03-03T03:13:52.425Z,14.80
2019-03-03T03:18:06.574Z,25.82
2019-03-03T03:22:11.788Z,25.20
2019-03-03T03:26:19.929Z,16.97
2019-03-03T03:30:43.362Z,19.10
2019-03-03T03:34:54.589Z,25.70
2019-03-03T03:39:02.265Z,20.65
2019-03-03T03:43:10.081Z,15.32
2019-03-03T03:47:15.429Z,19.02
2019-03-03T03:51:20.664Z,20.97
2019-03-03T03:55:44.357Z,15.23
2019-03-03T03:59:52.487Z,22.27
2019-03-03T04:04:13.067Z,17.80
2019-03-03T04:08:18.312Z,17.98
2019-03-03T04:12:29.206Z,19.43
2019-03-03T04:16:36.891Z,12.15
2019-03-03T04:20:42.115Z,17.32
2019-03-03T04:25:03.877Z,24.57
2019-03-03T04:29:09.599Z,19.48
2019-03-03T04:33:20.554Z,22.52
2019-03-03T04:37:40.699Z,22.27
2019-03-03T04:41:57.631Z,15.98
2019-03-03T04:46:15.119Z,16.00
2019-03-03T04:50:20.370Z,16.97
2019-03-03T04:54:31.360Z,13.53
2019-03-03T04:58:52.653Z,13.27
2019-03-03T05:03:03.560Z,23.83
2019-03-03T05:07:25.002Z,17.37
2019-03-03T05:12:08.146Z,4.22
2019-03-03T05:16:31.554Z,13.75
2019-03-03T05:20:45.517Z,13.10
2019-03-03T05:24:49.115Z,13.05
2019-03-03T05:28:52.696Z,12.80
2019-03-03T05:32:56.299Z,19.25
2019-03-03T05:36:59.904Z,11.28
2019-03-03T05:41:03.511Z,15.05
2019-03-03T05:45:08.034Z,14.00
2019-03-03T05:49:11.624Z,11.93
2019-03-03T05:53:15.227Z,8.83
2019-03-03T05:57:18.837Z,17.90
2019-03-03T06:01:22.439Z,16.50
2019-03-03T06:05:26.025Z,11.78
2019-03-03T06:09:29.604Z,4.78
2019-03-03T06:13:33.203Z,6.05
2019-03-03T06:17:36.803Z,7.72
2019-03-03T06:21:40.404Z,7.80
2019-03-03T06:25:43.988Z,15.63
2019-03-03T06:29:47.568Z,12.33
2019-03-03T06:33:51.249Z,23.27
2019-03-03T06:37:54.864Z,14.58
2019-03-03T06:41:58.467Z,15.43
2019-03-03T06:46:02.044Z,20.12
2019-03-03T06:50:08.873Z,20.23
2019-03-03T06:54:12.448Z,9.45
2019-03-03T06:58:16.051Z,14.30
2019-03-03T07:02:19.688Z,7.17
2019-03-03T07:06:23.262Z,11.43
2019-03-03T07:10:26.847Z,16.17
2019-03-03T07:14:30.436Z,17.80
2019-03-03T07:18:34.040Z,21.85
2019-03-03T07:22:37.720Z,17.50
2019-03-03T07:26:41.315Z,13.03
2019-03-03T07:30:44.891Z,13.58
2019-03-03T07:34:48.488Z,18.37
2019-03-03T07:38:52.092Z,14.80
2019-03-03T07:42:58.623Z,18.55
2019-03-03T07:47:02.228Z,14.58
2019-03-03T07:51:05.817Z,15.95
2019-03-03T07:55:10.536Z,8.60
2019-03-03T07:59:14.162Z,6.17
2019-03-03T08:03:17.764Z,10.18
2019-03-03T08:07:21.376Z,13.20
2019-03-03T08:11:24.955Z,17.20
2019-03-03T08:15:28.555Z,5.87
2019-03-03T08:19:32.161Z,5.60
2019-03-03T08:23:35.761Z,8.38
2019-03-03T08:27:39.379Z,5.97
2019-03-03T08:31:42.965Z,4.05
2019-03-03T08:35:46.548Z,11.33
2019-03-03T08:39:50.154Z,8.53
2019-03-03T08:43:55.393Z,3.85
2019-03-03T08:48:06.383Z,7.00
2019-03-03T08:52:20.232Z,7.35
2019-03-03T08:56:28.147Z,9.83
2019-03-03T09:00:39.151Z,6.70
2019-03-03T09:04:56.652Z,2.37
2019-03-03T09:09:04.572Z,7.17
2019-03-03T09:13:09.834Z,5.30
2019-03-03T09:17:23.996Z,3.40
2019-03-03T09:21:29.215Z,3.30
2019-03-03T09:25:50.904Z,4.70
2019-03-03T09:30:31.712Z,6.70
2019-03-03T09:34:53.310Z,9.75
2019-03-03T09:39:11.032Z,6.67
2019-03-03T09:43:18.970Z,8.45
2019-03-03T09:47:33.487Z,6.42
2019-03-03T09:51:38.735Z,5.00
2019-03-03T09:55:44.116Z,5.97
2019-03-03T10:04:21.384Z,11.90
2019-03-03T10:08:29.587Z,8.28
2019-03-03T10:12:34.819Z,6.05
2019-03-03T10:16:54.993Z,8.00
2019-03-03T10:21:18.294Z,35.68
2019-03-03T10:25:26.798Z,13.50
2019-03-03T10:29:44.766Z,15.68
2019-03-03T10:33:50.130Z,10.78
2019-03-03T10:38:04.606Z,16.17
2019-03-03T10:42:21.832Z,9.05
2019-03-03T10:46:36.259Z,21.27
2019-03-03T10:50:47.757Z,13.50
2019-03-03T10:54:55.676Z,15.93
2019-03-03T10:59:03.659Z,20.00
2019-03-03T11:07:44.773Z,9.03
2019-03-03T11:11:53.723Z,8.08
2019-03-03T11:16:15.227Z,7.70
2019-03-03T11:20:22.896Z,5.35
2019-03-03T11:29:05.136Z,4.40
2019-03-03T11:33:19.441Z,5.30
2019-03-03T11:37:27.660Z,9.40
2019-03-03T11:41:38.880Z,4.97
2019-03-03T11:45:56.081Z,7.78
2019-03-03T11:50:01.306Z,6.78
2019-03-03T11:54:09.615Z,4.60
2019-03-03T11:58:17.982Z,9.65
2019-03-03T12:02:23.551Z,8.28
2019-03-03T12:06:34.227Z,7.90
2019-03-03T12:10:45.296Z,8.57
2019-03-03T12:15:02.775Z,7.40
2019-03-03T12:19:17.100Z,5.83
2019-03-03T12:23:28.416Z,7.53
2019-03-03T12:27:42.750Z,8.83
2019-03-03T12:31:53.971Z,5.05
2019-03-03T12:35:59.211Z,3.33
2019-03-03T12:40:07.012Z,11.50
2019-03-03T12:44:17.717Z,5.30
2019-03-03T12:48:39.471Z,5.10
2019-03-03T12:52:50.483Z,4.72
2019-03-03T12:57:12.083Z,7.92
2019-03-03T13:01:19.864Z,8.55
2019-03-03T13:05:25.189Z,2.80
2019-03-03T13:09:39.727Z,7.17
2019-03-03T13:14:10.013Z,3.58
2019-03-03T13:18:21.211Z,5.65
2019-03-03T13:22:26.521Z,9.90
2019-03-03T13:26:31.766Z,7.03
2019-03-03T13:30:37.085Z,4.53
2019-03-03T13:34:42.352Z,3.27
2019-03-03T13:38:56.571Z,8.40
2019-03-03T13:43:00.178Z,5.83
2019-03-03T13:47:03.781Z,7.90
2019-03-03T13:51:07.472Z,8.00
2019-03-03T13:55:12.510Z,4.92
2019-03-03T13:59:16.100Z,4.27
2019-03-03T14:03:19.756Z,6.20
2019-03-03T14:07:23.383Z,3.70
2019-03-03T14:11:30.907Z,7.08
2019-03-03T14:15:34.587Z,4.62
2019-03-03T14:19:38.197Z,6.70
2019-03-03T14:23:41.908Z,6.95
2019-03-03T14:27:45.604Z,6.70
2019-03-03T14:31:49.216Z,6.85
2019-03-03T14:35:52.841Z,5.07
2019-03-03T14:39:56.464Z,1.50
2019-03-03T14:44:00.035Z,4.12
2019-03-03T14:48:03.649Z,10.00
2019-03-03T14:52:07.335Z,6.00
2019-03-03T14:56:10.943Z,7.85
2019-03-03T15:00:24.349Z,4.83
2019-03-03T15:04:28.942Z,3.98
2019-03-03T15:08:32.598Z,6.03
2019-03-03T15:12:36.220Z,4.85
2019-03-03T15:16:39.928Z,9.40
2019-03-03T15:20:43.696Z,6.37
2019-03-03T15:24:47.277Z,6.55
2019-03-03T15:28:50.884Z,6.25
2019-03-03T15:32:54.648Z,5.28
2019-03-03T15:36:58.372Z,5.78
2019-03-03T15:41:02.041Z,10.10
2019-03-03T15:45:08.697Z,7.72
2019-03-03T15:49:12.404Z,10.03
2019-03-03T15:53:16.016Z,4.55
2019-03-03T15:57:19.643Z,8.23
2019-03-03T16:01:23.331Z,9.35
2019-03-03T16:05:26.988Z,7.60
2019-03-03T16:09:30.889Z,8.25
2019-03-03T16:13:34.579Z,3.22
2019-03-03T16:17:38.180Z,8.03
2019-03-03T16:21:41.785Z,8.40
2019-03-03T16:25:45.368Z,8.88
2019-03-03T16:29:48.970Z,7.97
2019-03-03T16:33:52.579Z,7.72
2019-03-03T16:37:56.538Z,6.00
2019-03-03T16:42:00.112Z,5.72
2019-03-03T16:46:03.697Z,5.30
2019-03-03T16:50:10.208Z,5.75
2019-03-03T16:54:13.816Z,3.85
2019-03-03T16:58:17.425Z,4.35
2019-03-03T17:02:21.120Z,3.92
2019-03-03T17:06:24.704Z,7.42
2019-03-03T17:10:28.378Z,6.03
2019-03-03T17:14:32.005Z,3.50
2019-03-03T17:18:35.604Z,5.07
2019-03-03T17:22:39.292Z,5.70
2019-03-03T17:26:42.896Z,5.35
2019-03-03T17:30:46.491Z,2.83
2019-03-03T17:34:50.131Z,3.08
2019-03-03T17:38:53.724Z,5.12
2019-03-03T17:42:57.332Z,4.55
2019-03-03T17:47:00.927Z,5.30
2019-03-03T17:51:04.545Z,8.53
2019-03-03T17:55:09.596Z,4.85
2019-03-03T17:59:13.383Z,3.87
2019-03-03T18:03:16.990Z,3.20
2019-03-03T18:07:20.602Z,4.45
2019-03-03T18:11:24.204Z,5.12
2019-03-03T18:15:27.805Z,4.30
2019-03-03T18:19:31.600Z,4.20
2019-03-03T18:23:35.191Z,6.17
2019-03-03T18:27:38.913Z,5.17
2019-03-03T18:31:42.530Z,4.33
2019-03-03T18:35:46.260Z,4.28
2019-03-03T18:39:50.129Z,5.28
2019-03-03T18:43:53.736Z,4.22
2019-03-03T18:47:57.388Z,4.25
2019-03-03T18:52:00.982Z,5.53
2019-03-03T18:56:04.613Z,11.77
2019-03-03T19:00:13.794Z,11.73
2019-03-03T19:04:17.384Z,19.32
2019-03-03T19:08:20.967Z,6.05
2019-03-03T19:12:24.572Z,10.00
2019-03-03T19:16:28.177Z,7.03
2019-03-03T19:20:31.861Z,10.95
2019-03-03T19:24:35.468Z,17.67
2019-03-03T19:28:40.321Z,19.62
2019-03-03T19:32:44.554Z,23.57
2019-03-03T19:36:48.722Z,19.75
2019-03-03T19:40:52.408Z,21.73
2019-03-03T19:44:56.535Z,20.00
2019-03-03T19:49:00.554Z,12.53
2019-03-03T19:53:05.439Z,20.65
2019-03-03T19:57:09.774Z,16.37
2019-03-03T20:01:14.143Z,18.17
2019-03-03T20:05:18.623Z,15.65
2019-03-03T20:09:22.648Z,16.85
2019-03-03T20:13:27.101Z,16.35
2019-03-03T20:17:31.561Z,17.87
2019-03-03T20:21:36.099Z,16.35
2019-03-03T20:25:40.699Z,16.32
2019-03-03T20:29:45.947Z,21.60
2019-03-03T20:33:51.206Z,18.27
2019-03-03T20:37:56.789Z,15.73
2019-03-03T20:42:01.071Z,28.38
2019-03-03T20:46:05.911Z,14.55
2019-03-03T20:50:13.570Z,22.98
2019-03-03T20:54:17.869Z,18.32
2019-03-03T20:58:21.655Z,15.98
2019-03-03T21:02:25.395Z,19.27
2019-03-03T21:06:29.007Z,16.47
2019-03-03T21:10:34.360Z,16.20
2019-03-03T21:14:38.534Z,20.37
2019-03-03T21:18:42.367Z,18.67
2019-03-03T21:22:46.052Z,13.88
2019-03-03T21:26:49.668Z,21.75
2019-03-03T21:30:53.457Z,19.25
2019-03-03T21:34:57.037Z,22.58
2019-03-03T21:39:00.649Z,14.55
2019-03-03T21:43:04.636Z,19.20
2019-03-03T21:47:08.241Z,14.35
2019-03-03T21:51:11.852Z,10.48
2019-03-03T21:55:15.724Z,13.85
2019-03-03T21:59:19.380Z,23.67
2019-03-03T22:03:22.986Z,16.87
2019-03-03T22:07:26.595Z,11.03
2019-03-03T22:11:30.203Z,23.67
2019-03-03T22:15:33.781Z,10.93
2019-03-03T22:19:37.408Z,17.02
2019-03-03T22:23:41.032Z,14.95
2019-03-03T22:27:44.647Z,18.32
2019-03-03T22:31:48.251Z,20.02
2019-03-03T22:35:51.832Z,16.45
2019-03-03T22:39:55.439Z,20.65
2019-03-03T22:43:59.079Z,18.82
2019-03-03T22:48:02.688Z,13.40
2019-03-03T22:52:06.287Z,21.68
2019-03-03T22:56:09.886Z,9.05
2019-03-03T23:00:27.467Z,11.22
2019-03-03T23:04:46.264Z,7.15
2019-03-03T23:09:01.519Z,18.87
2019-03-03T23:13:14.208Z,12.75
2019-03-03T23:17:20.869Z,13.78
2019-03-03T23:21:39.576Z,11.85
2019-03-03T23:26:16.607Z,17.32
2019-03-03T23:30:15.428Z,17.52
2019-03-03T23:34:19.036Z,14.28
2019-03-03T23:38:22.673Z,15.48
2019-03-03T23:42:26.332Z,12.18
2019-03-03T23:46:30.017Z,16.25
2019-03-03T23:50:33.625Z,16.25
2019-03-03T23:54:37.252Z,14.40
2019-03-03T23:58:40.860Z,13.75
